sensor_id;sensor_type;location;lat;lon;timestamp;P1;durP1;ratioP1;P2;durP2;ratioP2
12910;SDS011;6523;49.758;6.120;2022-07-18T00:02:09;1.77;;;1.20;;
12910;SDS011;6523;49.758;6.120;2022-07-18T00:04:34;3.33;;;1.33;;
12910;SDS011;6523;49.758;6.120;2022-07-18T00:07:00;1.10;;;1.00;;
12910;SDS011;6523;49.758;6.120;2022-07-18T00:09:26;1.33;;;1.03;;
12910;SDS011;6523;49.758;6.120;2022-07-18T00:11:52;2.13;;;1.30;;
12910;SDS011;6523;49.758;6.120;2022-07-18T00:14:18;1.07;;;1.00;;
12910;SDS011;6523;49.758;6.120;2022-07-18T00:16:46;1.20;;;1.00;;
12910;SDS011;6523;49.758;6.120;2022-07-18T00:19:12;2.10;;;1.20;;
12910;SDS011;6523;49.758;6.120;2022-07-18T00:21:38;1.30;;;1.20;;
12910;SDS011;6523;49.758;6.120;2022-07-18T00:24:04;1.40;;;1.30;;
12910;SDS011;6523;49.758;6.120;2022-07-18T00:26:29;3.33;;;1.30;;
12910;SDS011;6523;49.758;6.120;2022-07-18T00:28:55;1.33;;;1.00;;
12910;SDS011;6523;49.758;6.120;2022-07-18T00:31:21;1.80;;;1.10;;
12910;SDS011;6523;49.758;6.120;2022-07-18T00:33:46;1.80;;;1.03;;
12910;SDS011;6523;49.758;6.120;2022-07-18T00:36:12;1.83;;;1.20;;
12910;SDS011;6523;49.758;6.120;2022-07-18T00:38:38;2.10;;;1.33;;
12910;SDS011;6523;49.758;6.120;2022-07-18T00:41:04;1.87;;;1.20;;
12910;SDS011;6523;49.758;6.120;2022-07-18T00:43:30;2.40;;;1.30;;
12910;SDS011;6523;49.758;6.120;2022-07-18T00:45:56;2.17;;;1.40;;
12910;SDS011;6523;49.758;6.120;2022-07-18T00:48:22;1.83;;;1.40;;
12910;SDS011;6523;49.758;6.120;2022-07-18T00:50:48;1.27;;;1.17;;
12910;SDS011;6523;49.758;6.120;2022-07-18T00:53:13;1.90;;;1.07;;
12910;SDS011;6523;49.758;6.120;2022-07-18T00:55:40;1.17;;;1.07;;
12910;SDS011;6523;49.758;6.120;2022-07-18T00:58:08;1.57;;;1.10;;
12910;SDS011;6523;49.758;6.120;2022-07-18T01:00:35;1.37;;;1.27;;
12910;SDS011;6523;49.758;6.120;2022-07-18T01:03:19;1.90;;;1.20;;
12910;SDS011;6523;49.758;6.120;2022-07-18T01:05:47;1.73;;;1.20;;
12910;SDS011;6523;49.758;6.120;2022-07-18T01:08:12;1.90;;;1.20;;
12910;SDS011;6523;49.758;6.120;2022-07-18T01:10:38;2.03;;;1.17;;
12910;SDS011;6523;49.758;6.120;2022-07-18T01:13:04;2.07;;;1.13;;
12910;SDS011;6523;49.758;6.120;2022-07-18T01:15:30;1.07;;;0.93;;
12910;SDS011;6523;49.758;6.120;2022-07-18T01:17:55;2.20;;;1.40;;
12910;SDS011;6523;49.758;6.120;2022-07-18T01:20:21;1.87;;;1.10;;
12910;SDS011;6523;49.758;6.120;2022-07-18T01:22:50;1.37;;;1.27;;
12910;SDS011;6523;49.758;6.120;2022-07-18T01:25:16;1.57;;;1.47;;
12910;SDS011;6523;49.758;6.120;2022-07-18T01:27:42;1.77;;;1.13;;
12910;SDS011;6523;49.758;6.120;2022-07-18T01:30:08;2.40;;;0.90;;
12910;SDS011;6523;49.758;6.120;2022-07-18T01:32:34;2.10;;;1.30;;
12910;SDS011;6523;49.758;6.120;2022-07-18T01:34:59;1.97;;;1.20;;
12910;SDS011;6523;49.758;6.120;2022-07-18T01:37:25;1.60;;;1.50;;
12910;SDS011;6523;49.758;6.120;2022-07-18T01:39:50;2.50;;;1.47;;
12910;SDS011;6523;49.758;6.120;2022-07-18T01:42:16;1.33;;;1.23;;
12910;SDS011;6523;49.758;6.120;2022-07-18T01:44:42;2.60;;;1.50;;
12910;SDS011;6523;49.758;6.120;2022-07-18T01:47:08;3.27;;;1.30;;
12910;SDS011;6523;49.758;6.120;2022-07-18T01:49:35;2.03;;;1.50;;
12910;SDS011;6523;49.758;6.120;2022-07-18T01:52:02;1.27;;;1.20;;
12910;SDS011;6523;49.758;6.120;2022-07-18T01:54:29;1.57;;;1.20;;
12910;SDS011;6523;49.758;6.120;2022-07-18T01:56:58;1.70;;;1.30;;
12910;SDS011;6523;49.758;6.120;2022-07-18T01:59:25;2.03;;;1.33;;
12910;SDS011;6523;49.758;6.120;2022-07-18T02:01:51;1.47;;;1.30;;
12910;SDS011;6523;49.758;6.120;2022-07-18T02:04:17;1.57;;;1.30;;
12910;SDS011;6523;49.758;6.120;2022-07-18T02:06:43;2.37;;;1.30;;
12910;SDS011;6523;49.758;6.120;2022-07-18T02:09:09;2.37;;;1.30;;
12910;SDS011;6523;49.758;6.120;2022-07-18T02:11:35;3.27;;;1.77;;
12910;SDS011;6523;49.758;6.120;2022-07-18T02:14:01;1.40;;;1.30;;
12910;SDS011;6523;49.758;6.120;2022-07-18T02:16:29;2.67;;;1.53;;
12910;SDS011;6523;49.758;6.120;2022-07-18T02:18:55;2.00;;;1.50;;
12910;SDS011;6523;49.758;6.120;2022-07-18T02:21:21;2.40;;;1.50;;
12910;SDS011;6523;49.758;6.120;2022-07-18T02:23:47;3.53;;;1.53;;
12910;SDS011;6523;49.758;6.120;2022-07-18T02:26:13;1.57;;;1.47;;
12910;SDS011;6523;49.758;6.120;2022-07-18T02:28:38;3.73;;;1.70;;
12910;SDS011;6523;49.758;6.120;2022-07-18T02:31:04;2.93;;;1.63;;
12910;SDS011;6523;49.758;6.120;2022-07-18T02:33:31;1.57;;;1.40;;
12910;SDS011;6523;49.758;6.120;2022-07-18T02:35:57;2.03;;;1.33;;
12910;SDS011;6523;49.758;6.120;2022-07-18T02:38:23;1.50;;;1.40;;
12910;SDS011;6523;49.758;6.120;2022-07-18T02:40:49;2.20;;;1.43;;
12910;SDS011;6523;49.758;6.120;2022-07-18T02:43:14;2.63;;;1.67;;
12910;SDS011;6523;49.758;6.120;2022-07-18T02:45:40;1.40;;;1.30;;
12910;SDS011;6523;49.758;6.120;2022-07-18T02:48:06;2.13;;;1.30;;
12910;SDS011;6523;49.758;6.120;2022-07-18T02:50:31;1.63;;;1.53;;
12910;SDS011;6523;49.758;6.120;2022-07-18T02:52:57;1.90;;;1.40;;
12910;SDS011;6523;49.758;6.120;2022-07-18T02:55:23;2.00;;;1.40;;
12910;SDS011;6523;49.758;6.120;2022-07-18T02:57:49;1.67;;;1.50;;
12910;SDS011;6523;49.758;6.120;2022-07-18T03:00:16;1.50;;;1.40;;
12910;SDS011;6523;49.758;6.120;2022-07-18T03:02:42;1.60;;;1.50;;
12910;SDS011;6523;49.758;6.120;2022-07-18T03:05:09;3.90;;;1.57;;
12910;SDS011;6523;49.758;6.120;2022-07-18T03:07:36;2.17;;;1.80;;
12910;SDS011;6523;49.758;6.120;2022-07-18T03:10:02;2.00;;;1.80;;
12910;SDS011;6523;49.758;6.120;2022-07-18T03:12:29;3.47;;;1.67;;
12910;SDS011;6523;49.758;6.120;2022-07-18T03:14:54;2.17;;;1.70;;
12910;SDS011;6523;49.758;6.120;2022-07-18T03:17:20;6.03;;;1.90;;
12910;SDS011;6523;49.758;6.120;2022-07-18T03:19:46;2.70;;;1.80;;
12910;SDS011;6523;49.758;6.120;2022-07-18T03:22:11;1.50;;;1.30;;
12910;SDS011;6523;49.758;6.120;2022-07-18T03:24:37;1.90;;;1.50;;
12910;SDS011;6523;49.758;6.120;2022-07-18T03:27:03;5.23;;;1.70;;
12910;SDS011;6523;49.758;6.120;2022-07-18T03:29:28;1.50;;;1.40;;
12910;SDS011;6523;49.758;6.120;2022-07-18T03:31:54;2.87;;;1.73;;
12910;SDS011;6523;49.758;6.120;2022-07-18T03:34:20;1.83;;;1.73;;
12910;SDS011;6523;49.758;6.120;2022-07-18T03:36:46;1.60;;;1.50;;
12910;SDS011;6523;49.758;6.120;2022-07-18T03:39:11;2.90;;;1.60;;
12910;SDS011;6523;49.758;6.120;2022-07-18T03:41:37;2.50;;;1.70;;
12910;SDS011;6523;49.758;6.120;2022-07-18T03:44:04;3.20;;;1.53;;
12910;SDS011;6523;49.758;6.120;2022-07-18T03:46:31;2.97;;;1.73;;
12910;SDS011;6523;49.758;6.120;2022-07-18T03:48:57;2.20;;;1.53;;
12910;SDS011;6523;49.758;6.120;2022-07-18T03:51:23;3.73;;;1.73;;
12910;SDS011;6523;49.758;6.120;2022-07-18T03:53:48;2.37;;;1.57;;
12910;SDS011;6523;49.758;6.120;2022-07-18T03:56:14;2.10;;;1.77;;
12910;SDS011;6523;49.758;6.120;2022-07-18T03:58:40;1.73;;;1.50;;
12910;SDS011;6523;49.758;6.120;2022-07-18T04:01:06;2.80;;;1.50;;
12910;SDS011;6523;49.758;6.120;2022-07-18T04:03:32;1.70;;;1.57;;
12910;SDS011;6523;49.758;6.120;2022-07-18T04:05:58;2.67;;;1.70;;
12910;SDS011;6523;49.758;6.120;2022-07-18T04:08:23;2.70;;;1.90;;
12910;SDS011;6523;49.758;6.120;2022-07-18T04:10:49;3.50;;;1.63;;
12910;SDS011;6523;49.758;6.120;2022-07-18T04:13:15;2.20;;;1.80;;
12910;SDS011;6523;49.758;6.120;2022-07-18T04:15:41;2.23;;;1.70;;
12910;SDS011;6523;49.758;6.120;2022-07-18T04:18:07;1.77;;;1.60;;
12910;SDS011;6523;49.758;6.120;2022-07-18T04:20:34;2.43;;;1.73;;
12910;SDS011;6523;49.758;6.120;2022-07-18T04:23:02;2.33;;;1.80;;
12910;SDS011;6523;49.758;6.120;2022-07-18T04:25:33;3.90;;;1.60;;
12910;SDS011;6523;49.758;6.120;2022-07-18T04:28:03;1.97;;;1.80;;
12910;SDS011;6523;49.758;6.120;2022-07-18T04:30:30;1.80;;;1.50;;
12910;SDS011;6523;49.758;6.120;2022-07-18T04:32:57;1.70;;;1.60;;
12910;SDS011;6523;49.758;6.120;2022-07-18T04:35:23;2.07;;;1.70;;
12910;SDS011;6523;49.758;6.120;2022-07-18T04:37:49;2.70;;;1.70;;
12910;SDS011;6523;49.758;6.120;2022-07-18T04:40:16;2.33;;;2.00;;
12910;SDS011;6523;49.758;6.120;2022-07-18T04:42:42;2.53;;;2.33;;
12910;SDS011;6523;49.758;6.120;2022-07-18T04:45:08;2.73;;;1.90;;
12910;SDS011;6523;49.758;6.120;2022-07-18T04:47:34;3.20;;;1.93;;
12910;SDS011;6523;49.758;6.120;2022-07-18T04:50:00;3.10;;;1.90;;
12910;SDS011;6523;49.758;6.120;2022-07-18T04:52:26;4.03;;;1.80;;
12910;SDS011;6523;49.758;6.120;2022-07-18T04:54:52;3.23;;;1.87;;
12910;SDS011;6523;49.758;6.120;2022-07-18T04:57:18;2.67;;;1.87;;
12910;SDS011;6523;49.758;6.120;2022-07-18T04:59:44;1.77;;;1.67;;
12910;SDS011;6523;49.758;6.120;2022-07-18T05:02:10;2.07;;;1.40;;
12910;SDS011;6523;49.758;6.120;2022-07-18T05:04:37;5.07;;;1.77;;
12910;SDS011;6523;49.758;6.120;2022-07-18T05:07:03;2.80;;;1.70;;
12910;SDS011;6523;49.758;6.120;2022-07-18T05:09:31;4.17;;;1.67;;
12910;SDS011;6523;49.758;6.120;2022-07-18T05:11:57;3.60;;;2.13;;
12910;SDS011;6523;49.758;6.120;2022-07-18T05:14:23;3.10;;;1.70;;
12910;SDS011;6523;49.758;6.120;2022-07-18T05:16:48;2.60;;;1.90;;
12910;SDS011;6523;49.758;6.120;2022-07-18T05:19:14;2.40;;;1.80;;
12910;SDS011;6523;49.758;6.120;2022-07-18T05:21:41;2.23;;;2.03;;
12910;SDS011;6523;49.758;6.120;2022-07-18T05:24:10;3.57;;;1.90;;
12910;SDS011;6523;49.758;6.120;2022-07-18T05:26:36;1.77;;;1.63;;
12910;SDS011;6523;49.758;6.120;2022-07-18T05:29:01;3.60;;;1.87;;
12910;SDS011;6523;49.758;6.120;2022-07-18T05:31:27;3.73;;;2.00;;
12910;SDS011;6523;49.758;6.120;2022-07-18T05:33:53;2.03;;;1.90;;
12910;SDS011;6523;49.758;6.120;2022-07-18T05:36:18;3.50;;;1.87;;
12910;SDS011;6523;49.758;6.120;2022-07-18T05:38:44;2.00;;;1.90;;
12910;SDS011;6523;49.758;6.120;2022-07-18T05:41:10;4.10;;;1.90;;
12910;SDS011;6523;49.758;6.120;2022-07-18T05:43:36;3.80;;;2.50;;
12910;SDS011;6523;49.758;6.120;2022-07-18T05:46:02;4.50;;;3.17;;
12910;SDS011;6523;49.758;6.120;2022-07-18T05:48:28;3.23;;;2.30;;
12910;SDS011;6523;49.758;6.120;2022-07-18T05:50:54;2.80;;;2.50;;
12910;SDS011;6523;49.758;6.120;2022-07-18T05:53:19;3.27;;;2.70;;
12910;SDS011;6523;49.758;6.120;2022-07-18T05:55:45;3.40;;;2.30;;
12910;SDS011;6523;49.758;6.120;2022-07-18T05:58:11;2.83;;;2.13;;
12910;SDS011;6523;49.758;6.120;2022-07-18T06:00:37;3.43;;;2.20;;
12910;SDS011;6523;49.758;6.120;2022-07-18T06:03:02;3.97;;;2.20;;
12910;SDS011;6523;49.758;6.120;2022-07-18T06:05:28;5.00;;;2.33;;
12910;SDS011;6523;49.758;6.120;2022-07-18T06:07:55;2.93;;;2.63;;
12910;SDS011;6523;49.758;6.120;2022-07-18T06:10:22;4.90;;;2.70;;
12910;SDS011;6523;49.758;6.120;2022-07-18T06:12:49;3.53;;;2.30;;
12910;SDS011;6523;49.758;6.120;2022-07-18T06:15:15;3.23;;;2.40;;
12910;SDS011;6523;49.758;6.120;2022-07-18T06:17:41;4.23;;;2.10;;
12910;SDS011;6523;49.758;6.120;2022-07-18T06:20:07;4.07;;;2.20;;
12910;SDS011;6523;49.758;6.120;2022-07-18T06:22:34;4.87;;;2.23;;
12910;SDS011;6523;49.758;6.120;2022-07-18T06:25:00;3.70;;;2.33;;
12910;SDS011;6523;49.758;6.120;2022-07-18T06:27:27;3.40;;;2.43;;
12910;SDS011;6523;49.758;6.120;2022-07-18T06:29:52;2.30;;;1.83;;
12910;SDS011;6523;49.758;6.120;2022-07-18T06:32:18;3.60;;;2.57;;
12910;SDS011;6523;49.758;6.120;2022-07-18T06:34:44;2.23;;;2.00;;
12910;SDS011;6523;49.758;6.120;2022-07-18T06:37:10;2.47;;;2.00;;
12910;SDS011;6523;49.758;6.120;2022-07-18T06:39:35;4.83;;;2.30;;
12910;SDS011;6523;49.758;6.120;2022-07-18T06:42:01;4.63;;;1.90;;
12910;SDS011;6523;49.758;6.120;2022-07-18T06:44:27;6.17;;;2.03;;
12910;SDS011;6523;49.758;6.120;2022-07-18T06:46:53;2.97;;;2.07;;
12910;SDS011;6523;49.758;6.120;2022-07-18T06:49:19;3.97;;;2.17;;
12910;SDS011;6523;49.758;6.120;2022-07-18T06:51:45;4.47;;;2.60;;
12910;SDS011;6523;49.758;6.120;2022-07-18T06:54:10;4.97;;;2.07;;
12910;SDS011;6523;49.758;6.120;2022-07-18T06:56:36;5.80;;;2.37;;
12910;SDS011;6523;49.758;6.120;2022-07-18T06:59:02;3.33;;;1.90;;
12910;SDS011;6523;49.758;6.120;2022-07-18T07:01:27;4.93;;;2.20;;
12910;SDS011;6523;49.758;6.120;2022-07-18T07:03:53;3.87;;;2.17;;
12910;SDS011;6523;49.758;6.120;2022-07-18T07:06:19;3.57;;;2.03;;
12910;SDS011;6523;49.758;6.120;2022-07-18T07:08:44;6.07;;;2.30;;
12910;SDS011;6523;49.758;6.120;2022-07-18T07:11:10;6.23;;;2.43;;
12910;SDS011;6523;49.758;6.120;2022-07-18T07:13:36;5.43;;;2.33;;
12910;SDS011;6523;49.758;6.120;2022-07-18T07:16:01;4.07;;;2.40;;
12910;SDS011;6523;49.758;6.120;2022-07-18T07:18:27;10.53;;;2.83;;
12910;SDS011;6523;49.758;6.120;2022-07-18T07:20:53;3.13;;;1.87;;
12910;SDS011;6523;49.758;6.120;2022-07-18T07:23:18;4.33;;;2.27;;
12910;SDS011;6523;49.758;6.120;2022-07-18T07:25:44;3.03;;;2.00;;
12910;SDS011;6523;49.758;6.120;2022-07-18T07:28:09;8.00;;;1.97;;
12910;SDS011;6523;49.758;6.120;2022-07-18T07:30:35;5.37;;;2.07;;
12910;SDS011;6523;49.758;6.120;2022-07-18T07:33:01;3.20;;;1.73;;
12910;SDS011;6523;49.758;6.120;2022-07-18T07:35:27;2.80;;;1.77;;
12910;SDS011;6523;49.758;6.120;2022-07-18T07:37:54;2.27;;;1.70;;
12910;SDS011;6523;49.758;6.120;2022-07-18T07:40:22;3.87;;;1.80;;
12910;SDS011;6523;49.758;6.120;2022-07-18T07:42:50;2.57;;;1.70;;
12910;SDS011;6523;49.758;6.120;2022-07-18T07:45:16;4.63;;;2.23;;
12910;SDS011;6523;49.758;6.120;2022-07-18T07:47:42;3.93;;;1.80;;
12910;SDS011;6523;49.758;6.120;2022-07-18T07:50:08;3.80;;;1.93;;
12910;SDS011;6523;49.758;6.120;2022-07-18T07:52:34;5.60;;;1.97;;
12910;SDS011;6523;49.758;6.120;2022-07-18T07:55:00;2.27;;;1.80;;
12910;SDS011;6523;49.758;6.120;2022-07-18T07:57:26;3.03;;;1.90;;
12910;SDS011;6523;49.758;6.120;2022-07-18T07:59:52;3.47;;;1.80;;
12910;SDS011;6523;49.758;6.120;2022-07-18T08:02:18;2.77;;;1.60;;
12910;SDS011;6523;49.758;6.120;2022-07-18T08:04:43;2.87;;;1.60;;
12910;SDS011;6523;49.758;6.120;2022-07-18T08:07:10;1.97;;;1.80;;
12910;SDS011;6523;49.758;6.120;2022-07-18T08:09:36;2.47;;;1.80;;
12910;SDS011;6523;49.758;6.120;2022-07-18T08:12:02;4.00;;;1.87;;
12910;SDS011;6523;49.758;6.120;2022-07-18T08:14:29;4.43;;;1.87;;
12910;SDS011;6523;49.758;6.120;2022-07-18T08:16:54;4.33;;;2.10;;
12910;SDS011;6523;49.758;6.120;2022-07-18T08:19:20;2.83;;;1.70;;
12910;SDS011;6523;49.758;6.120;2022-07-18T08:21:45;2.53;;;1.60;;
12910;SDS011;6523;49.758;6.120;2022-07-18T08:24:11;3.50;;;2.00;;
12910;SDS011;6523;49.758;6.120;2022-07-18T08:26:37;3.50;;;1.70;;
12910;SDS011;6523;49.758;6.120;2022-07-18T08:29:04;1.67;;;1.57;;
12910;SDS011;6523;49.758;6.120;2022-07-18T08:31:32;4.20;;;2.10;;
12910;SDS011;6523;49.758;6.120;2022-07-18T08:33:57;2.10;;;1.70;;
12910;SDS011;6523;49.758;6.120;2022-07-18T08:36:23;2.40;;;1.80;;
12910;SDS011;6523;49.758;6.120;2022-07-18T08:38:50;3.90;;;1.93;;
12910;SDS011;6523;49.758;6.120;2022-07-18T08:41:16;4.17;;;1.90;;
12910;SDS011;6523;49.758;6.120;2022-07-18T08:43:43;2.70;;;1.60;;
12910;SDS011;6523;49.758;6.120;2022-07-18T08:46:09;2.83;;;1.70;;
12910;SDS011;6523;49.758;6.120;2022-07-18T08:48:36;6.90;;;1.97;;
12910;SDS011;6523;49.758;6.120;2022-07-18T08:51:04;2.93;;;1.80;;
12910;SDS011;6523;49.758;6.120;2022-07-18T08:53:30;3.17;;;1.60;;
12910;SDS011;6523;49.758;6.120;2022-07-18T08:55:58;2.90;;;1.60;;
12910;SDS011;6523;49.758;6.120;2022-07-18T08:58:24;5.33;;;1.47;;
12910;SDS011;6523;49.758;6.120;2022-07-18T09:00:50;7.67;;;1.93;;
12910;SDS011;6523;49.758;6.120;2022-07-18T09:03:16;9.83;;;2.70;;
12910;SDS011;6523;49.758;6.120;2022-07-18T09:05:42;3.23;;;2.07;;
12910;SDS011;6523;49.758;6.120;2022-07-18T09:08:15;4.27;;;1.90;;
12910;SDS011;6523;49.758;6.120;2022-07-18T09:10:58;4.53;;;1.90;;
12910;SDS011;6523;49.758;6.120;2022-07-18T09:13:30;6.83;;;1.87;;
12910;SDS011;6523;49.758;6.120;2022-07-18T09:16:09;4.03;;;1.90;;
12910;SDS011;6523;49.758;6.120;2022-07-18T09:18:38;4.17;;;1.37;;
12910;SDS011;6523;49.758;6.120;2022-07-18T09:23:39;22.73;;;3.37;;
12910;SDS011;6523;49.758;6.120;2022-07-18T09:26:11;10.53;;;2.87;;
12910;SDS011;6523;49.758;6.120;2022-07-18T09:28:44;9.67;;;2.17;;
12910;SDS011;6523;49.758;6.120;2022-07-18T09:31:20;6.07;;;2.00;;
12910;SDS011;6523;49.758;6.120;2022-07-18T09:33:52;6.87;;;2.40;;
12910;SDS011;6523;49.758;6.120;2022-07-18T09:36:19;3.17;;;1.70;;
12910;SDS011;6523;49.758;6.120;2022-07-18T09:38:44;3.80;;;1.67;;
12910;SDS011;6523;49.758;6.120;2022-07-18T09:41:10;1.60;;;1.27;;
12910;SDS011;6523;49.758;6.120;2022-07-18T09:43:37;8.13;;;2.07;;
12910;SDS011;6523;49.758;6.120;2022-07-18T09:46:04;1.60;;;1.27;;
12910;SDS011;6523;49.758;6.120;2022-07-18T09:48:31;3.20;;;1.10;;
12910;SDS011;6523;49.758;6.120;2022-07-18T09:51:04;1.83;;;1.10;;
12910;SDS011;6523;49.758;6.120;2022-07-18T09:53:34;1.20;;;1.00;;
12910;SDS011;6523;49.758;6.120;2022-07-18T09:58:28;1.40;;;1.10;;
12910;SDS011;6523;49.758;6.120;2022-07-18T10:00:59;2.57;;;1.17;;
12910;SDS011;6523;49.758;6.120;2022-07-18T10:03:26;3.00;;;1.20;;
12910;SDS011;6523;49.758;6.120;2022-07-18T10:05:53;2.67;;;1.30;;
12910;SDS011;6523;49.758;6.120;2022-07-18T10:08:21;1.13;;;1.00;;
12910;SDS011;6523;49.758;6.120;2022-07-18T10:10:53;2.07;;;1.23;;
12910;SDS011;6523;49.758;6.120;2022-07-18T10:13:20;1.90;;;1.03;;
12910;SDS011;6523;49.758;6.120;2022-07-18T10:15:47;1.27;;;1.00;;
12910;SDS011;6523;49.758;6.120;2022-07-18T10:18:16;1.80;;;1.20;;
12910;SDS011;6523;49.758;6.120;2022-07-18T10:23:19;1.97;;;0.97;;
12910;SDS011;6523;49.758;6.120;2022-07-18T10:31:31;7.40;;;1.50;;
12910;SDS011;6523;49.758;6.120;2022-07-18T10:36:42;1.73;;;1.27;;
12910;SDS011;6523;49.758;6.120;2022-07-18T10:39:39;2.00;;;1.17;;
12910;SDS011;6523;49.758;6.120;2022-07-18T10:44:37;2.33;;;1.30;;
12910;SDS011;6523;49.758;6.120;2022-07-18T11:00:16;1.67;;;1.20;;
12910;SDS011;6523;49.758;6.120;2022-07-18T11:02:49;1.35;;;1.10;;
12910;SDS011;6523;49.758;6.120;2022-07-18T11:13:22;4.33;;;1.40;;
12910;SDS011;6523;49.758;6.120;2022-07-18T11:15:59;4.00;;;1.27;;
12910;SDS011;6523;49.758;6.120;2022-07-18T11:18:31;4.88;;;1.38;;
12910;SDS011;6523;49.758;6.120;2022-07-18T11:20:57;10.27;;;1.63;;
12910;SDS011;6523;49.758;6.120;2022-07-18T11:23:24;3.22;;;1.02;;
12910;SDS011;6523;49.758;6.120;2022-07-18T11:25:52;3.00;;;1.05;;
12910;SDS011;6523;49.758;6.120;2022-07-18T11:28:22;1.95;;;0.93;;
12910;SDS011;6523;49.758;6.120;2022-07-18T11:33:31;1.27;;;1.15;;
12910;SDS011;6523;49.758;6.120;2022-07-18T11:36:05;1.30;;;1.20;;
12910;SDS011;6523;49.758;6.120;2022-07-18T11:38:33;1.85;;;1.10;;
12910;SDS011;6523;49.758;6.120;2022-07-18T11:41:02;2.50;;;1.15;;
12910;SDS011;6523;49.758;6.120;2022-07-18T11:43:28;1.77;;;1.30;;
12910;SDS011;6523;49.758;6.120;2022-07-18T11:45:58;2.47;;;1.15;;
12910;SDS011;6523;49.758;6.120;2022-07-18T11:48:35;1.10;;;1.00;;
12910;SDS011;6523;49.758;6.120;2022-07-18T11:51:02;2.60;;;1.33;;
12910;SDS011;6523;49.758;6.120;2022-07-18T11:53:44;2.45;;;1.20;;
12910;SDS011;6523;49.758;6.120;2022-07-18T11:56:10;1.58;;;1.10;;
12910;SDS011;6523;49.758;6.120;2022-07-18T11:58:37;2.17;;;1.13;;
12910;SDS011;6523;49.758;6.120;2022-07-18T12:01:04;1.63;;;1.10;;
12910;SDS011;6523;49.758;6.120;2022-07-18T12:03:30;1.75;;;1.20;;
12910;SDS011;6523;49.758;6.120;2022-07-18T12:06:14;2.28;;;1.30;;
12910;SDS011;6523;49.758;6.120;2022-07-18T12:08:46;15.13;;;2.13;;
12910;SDS011;6523;49.758;6.120;2022-07-18T12:11:16;2.50;;;1.40;;
12910;SDS011;6523;49.758;6.120;2022-07-18T12:13:53;1.50;;;1.23;;
12910;SDS011;6523;49.758;6.120;2022-07-18T12:16:36;2.35;;;1.17;;
12910;SDS011;6523;49.758;6.120;2022-07-18T12:22:09;1.05;;;1.00;;
12910;SDS011;6523;49.758;6.120;2022-07-18T12:24:55;1.63;;;1.48;;
12910;SDS011;6523;49.758;6.120;2022-07-18T12:32:22;1.92;;;1.10;;
12910;SDS011;6523;49.758;6.120;2022-07-18T12:35:01;2.72;;;1.10;;
12910;SDS011;6523;49.758;6.120;2022-07-18T12:37:32;2.25;;;1.20;;
12910;SDS011;6523;49.758;6.120;2022-07-18T12:39:58;2.53;;;1.35;;
12910;SDS011;6523;49.758;6.120;2022-07-18T12:42:30;1.77;;;1.23;;
12910;SDS011;6523;49.758;6.120;2022-07-18T12:45:03;1.27;;;1.17;;
12910;SDS011;6523;49.758;6.120;2022-07-18T12:47:30;1.40;;;1.30;;
12910;SDS011;6523;49.758;6.120;2022-07-18T12:49:56;1.58;;;1.10;;
12910;SDS011;6523;49.758;6.120;2022-07-18T12:52:22;1.88;;;1.38;;
12910;SDS011;6523;49.758;6.120;2022-07-18T12:54:48;4.15;;;1.60;;
12910;SDS011;6523;49.758;6.120;2022-07-18T12:57:14;1.67;;;1.20;;
12910;SDS011;6523;49.758;6.120;2022-07-18T12:59:40;2.70;;;1.23;;
12910;SDS011;6523;49.758;6.120;2022-07-18T13:02:06;2.38;;;1.27;;
12910;SDS011;6523;49.758;6.120;2022-07-18T13:04:31;5.00;;;1.40;;
12910;SDS011;6523;49.758;6.120;2022-07-18T13:06:57;4.47;;;1.70;;
12910;SDS011;6523;49.758;6.120;2022-07-18T13:09:22;4.85;;;1.55;;
12910;SDS011;6523;49.758;6.120;2022-07-18T13:11:48;2.47;;;1.60;;
12910;SDS011;6523;49.758;6.120;2022-07-18T13:14:14;2.63;;;1.45;;
12910;SDS011;6523;49.758;6.120;2022-07-18T13:16:41;1.50;;;1.40;;
12910;SDS011;6523;49.758;6.120;2022-07-18T13:19:10;2.20;;;1.20;;
12910;SDS011;6523;49.758;6.120;2022-07-18T13:21:36;3.15;;;1.05;;
12910;SDS011;6523;49.758;6.120;2022-07-18T13:24:02;4.53;;;1.55;;
12910;SDS011;6523;49.758;6.120;2022-07-18T13:26:28;1.05;;;1.00;;
12910;SDS011;6523;49.758;6.120;2022-07-18T13:28:54;1.52;;;1.35;;
12910;SDS011;6523;49.758;6.120;2022-07-18T13:31:19;2.35;;;1.20;;
12910;SDS011;6523;49.758;6.120;2022-07-18T13:33:45;1.70;;;1.30;;
12910;SDS011;6523;49.758;6.120;2022-07-18T13:36:12;2.63;;;1.50;;
12910;SDS011;6523;49.758;6.120;2022-07-18T13:38:38;1.27;;;1.10;;
12910;SDS011;6523;49.758;6.120;2022-07-18T13:41:04;2.45;;;1.30;;
12910;SDS011;6523;49.758;6.120;2022-07-18T13:43:30;2.22;;;1.30;;
12910;SDS011;6523;49.758;6.120;2022-07-18T13:45:55;2.50;;;1.20;;
12910;SDS011;6523;49.758;6.120;2022-07-18T13:48:21;4.32;;;1.40;;
12910;SDS011;6523;49.758;6.120;2022-07-18T13:50:46;1.92;;;1.38;;
12910;SDS011;6523;49.758;6.120;2022-07-18T13:53:12;1.27;;;1.15;;
12910;SDS011;6523;49.758;6.120;2022-07-18T13:55:38;1.63;;;1.27;;
12910;SDS011;6523;49.758;6.120;2022-07-18T13:58:03;3.85;;;1.20;;
12910;SDS011;6523;49.758;6.120;2022-07-18T14:00:29;4.82;;;1.50;;
12910;SDS011;6523;49.758;6.120;2022-07-18T14:02:55;1.73;;;1.42;;
12910;SDS011;6523;49.758;6.120;2022-07-18T14:05:20;2.50;;;1.60;;
12910;SDS011;6523;49.758;6.120;2022-07-18T14:07:46;1.23;;;1.13;;
12910;SDS011;6523;49.758;6.120;2022-07-18T14:10:13;1.80;;;1.27;;
12910;SDS011;6523;49.758;6.120;2022-07-18T14:12:40;4.82;;;1.50;;
12910;SDS011;6523;49.758;6.120;2022-07-18T14:15:06;3.58;;;1.63;;
12910;SDS011;6523;49.758;6.120;2022-07-18T14:17:33;4.00;;;1.40;;
12910;SDS011;6523;49.758;6.120;2022-07-18T14:19:58;4.57;;;1.50;;
12910;SDS011;6523;49.758;6.120;2022-07-18T14:22:24;2.08;;;1.30;;
12910;SDS011;6523;49.758;6.120;2022-07-18T14:24:50;1.27;;;1.08;;
12910;SDS011;6523;49.758;6.120;2022-07-18T14:27:15;3.85;;;1.25;;
12910;SDS011;6523;49.758;6.120;2022-07-18T14:29:41;3.25;;;1.33;;
12910;SDS011;6523;49.758;6.120;2022-07-18T14:32:06;1.70;;;1.30;;
12910;SDS011;6523;49.758;6.120;2022-07-18T14:34:33;2.88;;;1.27;;
12910;SDS011;6523;49.758;6.120;2022-07-18T14:36:59;3.10;;;1.27;;
12910;SDS011;6523;49.758;6.120;2022-07-18T14:39:25;2.80;;;1.17;;
12910;SDS011;6523;49.758;6.120;2022-07-18T14:41:51;2.97;;;1.40;;
12910;SDS011;6523;49.758;6.120;2022-07-18T14:44:17;1.88;;;1.20;;
12910;SDS011;6523;49.758;6.120;2022-07-18T14:46:42;3.97;;;1.58;;
12910;SDS011;6523;49.758;6.120;2022-07-18T14:49:08;3.65;;;1.25;;
12910;SDS011;6523;49.758;6.120;2022-07-18T14:51:34;2.78;;;1.15;;
12910;SDS011;6523;49.758;6.120;2022-07-18T14:53:59;2.10;;;1.40;;
12910;SDS011;6523;49.758;6.120;2022-07-18T14:56:25;3.33;;;1.33;;
12910;SDS011;6523;49.758;6.120;2022-07-18T14:58:51;1.77;;;1.20;;
12910;SDS011;6523;49.758;6.120;2022-07-18T15:01:16;2.33;;;1.08;;
12910;SDS011;6523;49.758;6.120;2022-07-18T15:03:44;1.73;;;1.33;;
12910;SDS011;6523;49.758;6.120;2022-07-18T15:06:10;2.00;;;1.20;;
12910;SDS011;6523;49.758;6.120;2022-07-18T15:08:37;2.13;;;1.30;;
12910;SDS011;6523;49.758;6.120;2022-07-18T15:11:03;3.60;;;1.40;;
12910;SDS011;6523;49.758;6.120;2022-07-18T15:13:28;1.60;;;1.20;;
12910;SDS011;6523;49.758;6.120;2022-07-18T15:15:54;1.77;;;1.38;;
12910;SDS011;6523;49.758;6.120;2022-07-18T15:18:19;1.08;;;0.95;;
12910;SDS011;6523;49.758;6.120;2022-07-18T15:20:45;1.38;;;1.10;;
12910;SDS011;6523;49.758;6.120;2022-07-18T15:23:11;1.80;;;1.40;;
12910;SDS011;6523;49.758;6.120;2022-07-18T15:25:37;2.83;;;1.10;;
12910;SDS011;6523;49.758;6.120;2022-07-18T15:28:03;3.20;;;1.38;;
12910;SDS011;6523;49.758;6.120;2022-07-18T15:30:28;2.03;;;1.23;;
12910;SDS011;6523;49.758;6.120;2022-07-18T15:32:54;1.80;;;1.20;;
12910;SDS011;6523;49.758;6.120;2022-07-18T15:35:20;1.98;;;1.33;;
12910;SDS011;6523;49.758;6.120;2022-07-18T15:37:46;3.42;;;1.23;;
12910;SDS011;6523;49.758;6.120;2022-07-18T15:40:12;4.00;;;1.30;;
12910;SDS011;6523;49.758;6.120;2022-07-18T15:42:38;1.35;;;1.25;;
12910;SDS011;6523;49.758;6.120;2022-07-18T15:45:03;4.53;;;1.15;;
12910;SDS011;6523;49.758;6.120;2022-07-18T15:47:29;2.20;;;1.08;;
12910;SDS011;6523;49.758;6.120;2022-07-18T15:49:55;1.27;;;1.17;;